Time;durP1;ratioP1;P1;durP2;ratioP2;P2;SDS_P1;SDS_P2;PMS_P1;PMS_P2;Temp;Humidity;BMP_temperature;BMP_pressure;BME280_temperature;BME280_humidity;BME280_pressure;Samples;Min_cycle;Max_cycle;Signal;HPM_P1;HPM_P2
2021/09/13 00:02:35;;;;;;;21.20;10.87;;;15.80;99.90;;;;;;4441527;28;660729;-68
2021/09/13 00:05:23;;;;;;;19.97;10.30;;;15.80;99.90;;;;;;4445323;28;660227;-68
2021/09/13 00:08:11;;;;;;;18.87;10.67;;;15.80;99.90;;;;;;4408865;28;659995;-67
2021/09/13 00:11:00;;;;;;;21.63;10.60;;;15.90;99.90;;;;;;4376434;28;660535;-67
2021/09/13 00:13:50;;;;;;;19.23;10.80;;;15.80;99.90;;;;;;4376167;28;659417;-68
2021/09/13 00:16:40;;;;;;;21.77;11.60;;;15.80;99.90;;;;;;4376182;28;660422;-68
2021/09/13 00:19:29;;;;;;;21.00;10.80;;;15.80;99.90;;;;;;4374846;28;659705;-68
2021/09/13 00:22:18;;;;;;;19.50;10.67;;;15.80;99.90;;;;;;4375943;28;660162;-68
2021/09/13 00:25:06;;;;;;;19.50;10.67;;;15.80;99.90;;;;;;4393536;28;660150;-67
2021/09/13 00:27:55;;;;;;;17.30;10.97;;;15.80;99.90;;;;;;4376112;28;660872;-68
2021/09/13 00:30:45;;;;;;;19.07;10.43;;;15.80;99.90;;;;;;4375996;28;659947;-68
2021/09/13 00:33:36;;;;;;;17.27;10.07;;;15.70;99.90;;;;;;4375679;28;659795;-68
2021/09/13 00:36:23;;;;;;;23.83;10.17;;;15.70;99.90;;;;;;4375523;28;660061;-67
2021/09/13 00:39:12;;;;;;;20.23;11.57;;;15.70;99.90;;;;;;4394219;28;659196;-67
2021/09/13 00:42:01;;;;;;;19.90;10.23;;;15.70;99.90;;;;;;4371514;28;660061;-67
2021/09/13 00:44:52;;;;;;;17.33;10.23;;;15.70;99.90;;;;;;4375642;28;659595;-67
2021/09/13 00:47:40;;;;;;;21.40;10.67;;;15.70;99.90;;;;;;4371409;28;660381;-68
2021/09/13 00:50:32;;;;;;;22.23;10.77;;;15.70;99.90;;;;;;4375755;28;659942;-68
2021/09/13 00:53:20;;;;;;;19.43;10.97;;;15.80;99.90;;;;;;4371503;28;660530;-67
2021/09/13 00:56:08;;;;;;;20.40;11.53;;;15.70;99.90;;;;;;4371398;28;660495;-68
2021/09/13 00:58:57;;;;;;;18.03;10.87;;;15.70;99.90;;;;;;4394162;28;659549;-67
2021/09/13 01:01:46;;;;;;;18.27;11.67;;;15.80;99.90;;;;;;4371661;28;659665;-67
2021/09/13 01:04:35;;;;;;;17.80;11.30;;;15.80;99.90;;;;;;4375605;28;660140;-67
2021/09/13 01:07:26;;;;;;;20.57;12.40;;;15.80;99.90;;;;;;4375049;28;659694;-68
2021/09/13 01:10:20;;;;;;;17.57;10.37;;;15.90;99.90;;;;;;4369595;28;660069;-67
2021/09/13 01:13:08;;;;;;;20.87;10.60;;;15.90;99.90;;;;;;4352125;28;659727;-68
2021/09/13 01:15:57;;;;;;;14.77;10.23;;;15.90;99.90;;;;;;4393451;28;659364;-67
2021/09/13 01:18:45;;;;;;;21.37;11.13;;;15.80;99.90;;;;;;4370854;28;660436;-67
2021/09/13 01:21:34;;;;;;;18.40;11.53;;;15.80;99.90;;;;;;4375061;28;659930;-67
2021/09/13 01:24:24;;;;;;;19.93;11.97;;;15.90;99.90;;;;;;4392697;28;659648;-68
2021/09/13 01:27:13;;;;;;;20.20;10.40;;;15.90;99.90;;;;;;4374149;28;660105;-68
2021/09/13 01:30:01;;;;;;;16.90;10.23;;;15.90;99.90;;;;;;4393809;28;659799;-68
2021/09/13 01:32:50;;;;;;;23.42;10.48;;;15.90;99.90;;;;;;4374961;28;660599;-68
2021/09/13 01:35:42;;;;;;;15.50;10.32;;;15.90;99.90;;;;;;4375148;28;660130;-68
2021/09/13 01:38:33;;;;;;;22.20;10.83;;;15.90;99.90;;;;;;4371022;28;660155;-67
2021/09/13 01:41:23;;;;;;;18.87;10.50;;;15.90;99.90;;;;;;4369288;28;659997;-68
2021/09/13 01:44:12;;;;;;;17.83;11.00;;;15.90;99.90;;;;;;4370650;28;660088;-67
2021/09/13 01:47:01;;;;;;;17.10;10.93;;;15.90;99.90;;;;;;4370529;28;660483;-67
2021/09/13 01:49:52;;;;;;;17.50;11.27;;;15.90;99.90;;;;;;4374763;28;659898;-68
2021/09/13 01:52:43;;;;;;;16.97;11.07;;;16.00;99.90;;;;;;4370792;28;660473;-67
2021/09/13 01:55:34;;;;;;;18.47;10.67;;;16.00;99.90;;;;;;4370711;28;659835;-67
2021/09/13 01:58:23;;;;;;;14.30;9.97;;;16.00;99.90;;;;;;4370694;28;659884;-67
2021/09/13 02:01:12;;;;;;;19.90;10.43;;;16.10;99.90;;;;;;4371833;28;658268;-67
2021/09/13 02:04:03;;;;;;;16.37;9.60;;;16.00;99.90;;;;;;4370419;28;660037;-67
2021/09/13 02:06:51;;;;;;;21.20;12.50;;;16.00;99.90;;;;;;4371531;28;659353;-67
2021/09/13 02:09:40;;;;;;;26.23;12.10;;;16.00;99.90;;;;;;4374962;28;660513;-67
2021/09/13 02:12:30;;;;;;;20.43;13.10;;;16.00;99.90;;;;;;4374266;28;659613;-67
2021/09/13 02:15:21;;;;;;;21.17;11.83;;;16.00;99.90;;;;;;4374565;28;659837;-68
2021/09/13 02:18:09;;;;;;;18.53;12.47;;;16.00;99.90;;;;;;4374690;28;660695;-68
2021/09/13 02:20:58;;;;;;;18.43;11.93;;;16.00;99.90;;;;;;4374211;28;659917;-68
2021/09/13 02:23:47;;;;;;;18.07;11.23;;;16.00;99.90;;;;;;4393253;28;659877;-67
2021/09/13 02:26:36;;;;;;;18.80;10.90;;;16.00;99.90;;;;;;4370270;28;660278;-68
2021/09/13 02:29:24;;;;;;;16.77;10.70;;;16.00;99.90;;;;;;4373694;28;659972;-68
2021/09/13 02:32:14;;;;;;;18.92;10.25;;;16.00;99.90;;;;;;4374249;28;659594;-68
2021/09/13 02:35:05;;;;;;;17.13;10.47;;;16.10;99.90;;;;;;4390516;28;659883;-68
2021/09/13 02:37:52;;;;;;;15.23;9.23;;;16.10;99.90;;;;;;4373793;28;659638;-67
2021/09/13 02:40:40;;;;;;;16.23;10.77;;;16.20;99.90;;;;;;4393906;28;658506;-67
2021/09/13 02:43:28;;;;;;;14.90;10.00;;;16.20;99.90;;;;;;4373064;28;660023;-68
2021/09/13 02:46:18;;;;;;;16.53;9.80;;;16.20;99.90;;;;;;4392549;28;659744;-67
2021/09/13 02:49:07;;;;;;;14.67;9.37;;;16.20;99.90;;;;;;4371133;28;658593;-67
2021/09/13 02:51:54;;;;;;;12.10;9.20;;;16.20;99.90;;;;;;4371124;28;659941;-67
2021/09/13 02:54:42;;;;;;;14.03;9.43;;;16.20;99.90;;;;;;4375286;28;659146;-68
2021/09/13 02:57:30;;;;;;;16.67;9.50;;;16.10;99.90;;;;;;4393403;28;659293;-67
2021/09/13 03:00:18;;;;;;;18.47;9.37;;;15.90;99.90;;;;;;4374917;28;658369;-67
2021/09/13 03:03:05;;;;;;;15.97;9.80;;;15.90;99.90;;;;;;4393880;28;659024;-68
2021/09/13 03:05:54;;;;;;;17.67;9.47;;;15.80;99.90;;;;;;4374173;28;658704;-68
2021/09/13 03:08:42;;;;;;;19.30;10.07;;;15.80;99.90;;;;;;4387086;28;659726;-68
2021/09/13 03:11:30;;;;;;;17.13;9.73;;;15.70;99.90;;;;;;4395963;28;660536;-68
2021/09/13 03:14:17;;;;;;;12.60;8.87;;;15.70;99.90;;;;;;4374778;28;658894;-68
2021/09/13 03:17:05;;;;;;;16.20;10.37;;;15.60;99.90;;;;;;4396953;28;658745;-67
2021/09/13 03:19:52;;;;;;;14.30;9.30;;;15.60;99.90;;;;;;4373342;28;660280;-68
2021/09/13 03:22:41;;;;;;;15.10;9.60;;;15.60;99.90;;;;;;4393190;28;658868;-67
2021/09/13 03:25:29;;;;;;;16.47;9.17;;;15.50;99.90;;;;;;4374975;28;659452;-67
2021/09/13 03:28:17;;;;;;;16.25;8.50;;;15.50;99.90;;;;;;4377981;28;659176;-68
2021/09/13 03:31:05;;;;;;;17.67;10.03;;;15.50;99.90;;;;;;4393318;28;659321;-68
2021/09/13 03:33:52;;;;;;;13.93;8.70;;;15.50;99.90;;;;;;4373367;28;659601;-68
2021/09/13 03:36:40;;;;;;;17.27;10.20;;;15.50;99.90;;;;;;4393757;28;659767;-67
2021/09/13 03:39:29;;;;;;;19.67;11.17;;;15.50;99.90;;;;;;4373589;28;659716;-68
2021/09/13 03:42:17;;;;;;;13.73;9.10;;;15.50;99.90;;;;;;4392483;28;659889;-68
2021/09/13 03:45:05;;;;;;;13.33;9.50;;;15.50;99.90;;;;;;4400122;28;659183;-67
2021/09/13 03:47:53;;;;;;;16.45;10.05;;;15.50;99.90;;;;;;4377907;28;658458;-68
2021/09/13 03:50:40;;;;;;;15.90;10.17;;;15.50;99.90;;;;;;4395249;28;659729;-67
2021/09/13 03:53:28;;;;;;;15.70;9.30;;;15.60;99.90;;;;;;4376662;28;660014;-68
2021/09/13 03:56:17;;;;;;;19.00;10.13;;;15.50;99.90;;;;;;4396993;28;658757;-68
2021/09/13 03:59:05;;;;;;;19.30;11.10;;;15.50;99.90;;;;;;4372526;28;660129;-67
2021/09/13 04:01:52;;;;;;;19.23;11.23;;;15.50;99.90;;;;;;4375099;28;659827;-68
2021/09/13 04:04:40;;;;;;;33.10;17.23;;;15.50;99.90;;;;;;4398850;28;660701;-67
2021/09/13 04:07:34;;;;;;;33.53;19.20;;;15.60;99.90;;;;;;4371639;28;660609;-67
2021/09/13 04:10:25;;;;;;;33.87;18.00;;;15.60;99.90;;;;;;4357188;28;659621;-68
2021/09/13 04:13:14;;;;;;;36.87;20.87;;;15.60;99.90;;;;;;4376023;28;659400;-67
2021/09/13 04:16:02;;;;;;;37.87;21.57;;;15.50;99.90;;;;;;4376057;28;659434;-68
2021/09/13 04:18:49;;;;;;;36.60;22.90;;;15.50;99.90;;;;;;4398907;28;660413;-67
2021/09/13 04:21:55;;;;;;;39.80;23.47;;;15.50;99.90;;;;;;4375971;28;660184;-67
2021/09/13 04:25:01;;;;;;;43.23;24.77;;;15.50;99.90;;;;;;4353375;28;660966;-67
2021/09/13 04:27:48;;;;;;;48.63;25.60;;;15.50;99.90;;;;;;4348551;28;660153;-67
2021/09/13 04:30:38;;;;;;;51.87;28.27;;;15.50;99.90;;;;;;4394504;28;659598;-67
2021/09/13 04:33:25;;;;;;;53.37;27.77;;;15.50;99.90;;;;;;4371798;28;660374;-67
2021/09/13 04:36:12;;;;;;;51.73;27.77;;;15.50;99.90;;;;;;4374899;28;659681;-67
2021/09/13 04:39:00;;;;;;;44.67;25.57;;;15.50;99.90;;;;;;4394412;28;660185;-67
2021/09/13 04:41:48;;;;;;;40.77;23.53;;;15.40;99.90;;;;;;4375510;28;660224;-67
2021/09/13 04:44:35;;;;;;;41.47;24.47;;;15.50;99.90;;;;;;4394520;28;660975;-67
2021/09/13 04:47:24;;;;;;;38.90;22.73;;;15.50;99.90;;;;;;4375721;28;659828;-67
2021/09/13 04:50:12;;;;;;;37.00;20.57;;;15.50;99.90;;;;;;4378395;28;659458;-68
2021/09/13 04:52:59;;;;;;;24.90;15.07;;;15.50;99.90;;;;;;4397265;28;660935;-67
2021/09/13 04:55:47;;;;;;;50.73;27.90;;;15.40;99.90;;;;;;4375329;28;659375;-68
2021/09/13 04:58:35;;;;;;;41.30;22.23;;;15.50;99.90;;;;;;4395246;28;660708;-67
2021/09/13 05:01:22;;;;;;;39.30;22.47;;;15.50;99.90;;;;;;4375401;28;660496;-68
2021/09/13 05:04:11;;;;;;;40.60;23.67;;;15.60;99.90;;;;;;4393799;28;660403;-67
2021/09/13 05:06:59;;;;;;;44.93;23.63;;;15.70;99.90;;;;;;4375061;28;660467;-67
2021/09/13 05:09:47;;;;;;;43.27;24.40;;;15.70;99.90;;;;;;4375342;28;659777;-67
2021/09/13 05:12:34;;;;;;;51.03;26.10;;;15.80;99.90;;;;;;4394284;28;660110;-67
2021/09/13 05:15:23;;;;;;;35.80;18.40;;;15.80;99.90;;;;;;4375187;28;659499;-67
2021/09/13 05:18:10;;;;;;;33.47;18.40;;;15.90;99.90;;;;;;4393803;28;659955;-67
2021/09/13 05:20:59;;;;;;;36.40;19.67;;;15.90;99.90;;;;;;4374432;28;659842;-67
2021/09/13 05:23:47;;;;;;;38.10;21.90;;;16.00;99.90;;;;;;4382619;28;660312;-67
2021/09/13 05:26:34;;;;;;;44.63;23.27;;;16.00;99.90;;;;;;4397246;28;660597;-67
2021/09/13 05:29:22;;;;;;;40.63;23.27;;;16.20;99.90;;;;;;4375574;28;659672;-68
2021/09/13 05:32:10;;;;;;;40.50;24.60;;;16.20;99.90;;;;;;4397757;28;660434;-67
2021/09/13 05:34:57;;;;;;;46.87;26.20;;;16.30;99.90;;;;;;4375033;28;659707;-68
2021/09/13 05:37:46;;;;;;;40.97;22.67;;;16.40;99.90;;;;;;4393599;28;660476;-67
2021/09/13 05:40:34;;;;;;;44.43;24.90;;;16.40;99.90;;;;;;4375104;28;660405;-67
2021/09/13 05:43:22;;;;;;;41.50;24.50;;;16.50;99.90;;;;;;4385849;28;659370;-68
2021/09/13 05:46:09;;;;;;;57.97;28.57;;;16.50;99.90;;;;;;4393561;28;660389;-67
2021/09/13 05:48:57;;;;;;;52.97;27.55;;;16.60;99.90;;;;;;4375466;28;659615;-67
2021/09/13 05:51:46;;;;;;;46.20;25.87;;;16.70;99.90;;;;;;4397473;28;660509;-67
2021/09/13 05:54:35;;;;;;;45.33;26.07;;;16.80;99.90;;;;;;4370613;28;661214;-67
2021/09/13 05:57:23;;;;;;;57.87;27.97;;;16.90;99.90;;;;;;4374623;28;660040;-68
2021/09/13 06:00:11;;;;;;;53.53;27.37;;;16.90;99.90;;;;;;4393566;28;660973;-67
2021/09/13 06:02:59;;;;;;;60.53;29.23;;;17.00;99.90;;;;;;4370568;28;660871;-67
2021/09/13 06:05:46;;;;;;;60.83;30.63;;;17.10;99.90;;;;;;4393500;28;659609;-67
2021/09/13 06:08:34;;;;;;;59.40;30.67;;;17.10;99.90;;;;;;4370256;28;660986;-67
2021/09/13 06:11:27;;;;;;;60.33;28.47;;;17.10;99.90;;;;;;4393296;28;659531;-67
2021/09/13 06:14:16;;;;;;;61.00;31.50;;;17.20;99.90;;;;;;4346142;28;660160;-68
2021/09/13 06:17:04;;;;;;;63.63;30.83;;;17.30;99.90;;;;;;4370484;28;661183;-67
2021/09/13 06:19:52;;;;;;;66.97;29.93;;;17.40;99.90;;;;;;4389771;28;660172;-68
2021/09/13 06:22:40;;;;;;;60.20;29.27;;;17.50;99.90;;;;;;4394963;28;660501;-67
2021/09/13 06:25:27;;;;;;;60.40;29.03;;;17.50;99.90;;;;;;4373228;28;659911;-68
2021/09/13 06:28:16;;;;;;;64.20;28.87;;;17.60;99.90;;;;;;4393167;28;660248;-67
2021/09/13 06:31:04;;;;;;;53.03;27.30;;;17.60;99.90;;;;;;4370375;28;660985;-67
2021/09/13 06:33:52;;;;;;;51.97;26.47;;;17.70;99.90;;;;;;4376690;28;660309;-68
2021/09/13 06:36:40;;;;;;;47.43;25.77;;;17.70;99.90;;;;;;4394153;28;660528;-67
2021/09/13 06:39:27;;;;;;;48.53;23.53;;;17.90;99.90;;;;;;4374160;28;659631;-68
2021/09/13 06:42:15;;;;;;;47.88;24.58;;;17.90;99.90;;;;;;4393943;28;660689;-67
2021/09/13 06:45:18;;;;;;;49.50;24.97;;;18.00;99.90;;;;;;4374175;28;659898;-68
2021/09/13 06:48:09;;;;;;;47.43;23.47;;;18.10;99.90;;;;;;4369191;28;660504;-67
2021/09/13 06:51:04;;;;;;;42.30;22.27;;;18.30;99.90;;;;;;4370230;28;659563;-67
2021/09/13 06:53:54;;;;;;;45.67;22.73;;;18.40;99.90;;;;;;4392407;28;659544;-68
2021/09/13 06:56:48;;;;;;;45.40;22.93;;;18.50;99.90;;;;;;4374109;28;659691;-68
2021/09/13 06:59:37;;;;;;;40.97;22.63;;;18.70;99.90;;;;;;4369694;28;660024;-67
2021/09/13 07:02:34;;;;;;;42.77;22.33;;;18.80;99.90;;;;;;4369540;28;660270;-67
2021/09/13 07:05:25;;;;;;;42.03;22.60;;;19.00;99.90;;;;;;4361648;28;659521;-68
2021/09/13 07:08:13;;;;;;;36.27;19.90;;;19.20;99.90;;;;;;4373805;28;659928;-68
2021/09/13 07:11:01;;;;;;;42.40;21.83;;;19.50;99.90;;;;;;4392533;28;660389;-68
2021/09/13 07:13:55;;;;;;;37.13;20.83;;;19.70;99.90;;;;;;4374020;28;660314;-67
2021/09/13 07:16:44;;;;;;;36.17;20.80;;;19.80;99.90;;;;;;4346595;28;660290;-68
2021/09/13 07:19:39;;;;;;;44.80;21.17;;;19.90;99.90;;;;;;4373802;28;659524;-68
2021/09/13 07:22:31;;;;;;;42.63;22.40;;;19.80;99.90;;;;;;4369638;28;659469;-67
2021/09/13 07:25:26;;;;;;;47.37;22.87;;;19.70;99.90;;;;;;4373667;28;659648;-68
2021/09/13 07:28:20;;;;;;;50.53;22.87;;;19.60;99.90;;;;;;4346973;28;660462;-67
2021/09/13 07:31:15;;;;;;;45.60;22.97;;;19.50;99.90;;;;;;4350757;28;660003;-68
2021/09/13 07:34:08;;;;;;;45.07;23.73;;;19.30;99.90;;;;;;4349204;28;660448;-67
2021/09/13 07:37:02;;;;;;;50.27;25.67;;;19.00;99.90;;;;;;4369587;28;659253;-67
2021/09/13 07:39:57;;;;;;;47.53;24.77;;;18.80;99.90;;;;;;4369684;28;659723;-67
2021/09/13 07:42:52;;;;;;;51.27;25.93;;;18.60;99.90;;;;;;4346658;28;660647;-67
2021/09/13 07:45:44;;;;;;;52.50;26.97;;;18.50;99.90;;;;;;4369081;28;660350;-67
2021/09/13 07:48:38;;;;;;;56.03;27.60;;;18.50;99.90;;;;;;4349652;28;659708;-68
2021/09/13 07:51:28;;;;;;;60.07;29.50;;;18.40;99.90;;;;;;4369517;28;659820;-67
2021/09/13 07:54:20;;;;;;;61.37;28.53;;;18.40;99.90;;;;;;4369359;28;660394;-67
2021/09/13 07:57:12;;;;;;;61.50;30.13;;;18.30;99.90;;;;;;4372118;28;659518;-68
2021/09/13 08:00:05;;;;;;;60.10;30.60;;;18.40;99.90;;;;;;4369305;28;661227;-67
2021/09/13 08:02:52;;;;;;;66.63;30.90;;;18.50;99.90;;;;;;4346658;28;659871;-68
2021/09/13 08:05:40;;;;;;;59.20;29.30;;;18.60;99.90;;;;;;4392015;28;660094;-67
2021/09/13 08:08:31;;;;;;;67.73;31.03;;;18.80;99.90;;;;;;4373015;28;660074;-68
2021/09/13 08:11:20;;;;;;;57.13;31.37;;;19.20;99.90;;;;;;4372300;28;660460;-68
2021/09/13 08:14:08;;;;;;;58.22;30.25;;;19.70;99.90;;;;;;4373243;28;659785;-68
2021/09/13 08:16:56;;;;;;;45.30;25.80;;;20.00;99.90;;;;;;4391489;28;659684;-67
2021/09/13 08:19:44;;;;;;;49.50;24.93;;;20.40;99.90;;;;;;4369090;28;661366;-68
2021/09/13 08:22:32;;;;;;;46.67;24.60;;;20.70;93.60;;;;;;4375100;28;659402;-68
2021/09/13 08:25:20;;;;;;;51.13;26.73;;;21.00;93.80;;;;;;4391720;28;660495;-68
2021/09/13 08:28:12;;;;;;;50.20;24.00;;;21.00;89.30;;;;;;4374665;28;659648;-68
2021/09/13 08:30:59;;;;;;;45.50;23.57;;;21.10;66.50;;;;;;4372026;28;661044;-68
2021/09/13 08:33:52;;;;;;;40.67;22.57;;;20.90;59.50;;;;;;4375782;28;659559;-68
2021/09/13 08:36:44;;;;;;;37.03;21.37;;;20.90;59.30;;;;;;4371866;28;660560;-68
2021/09/13 08:39:38;;;;;;;41.50;21.03;;;21.30;73.50;;;;;;4391256;28;659977;-68
2021/09/13 08:42:32;;;;;;;38.40;22.10;;;21.60;19.30;;;;;;4371806;28;659736;-68
2021/09/13 08:45:37;;;;;;;40.77;22.13;;;21.60;1.00;;;;;;4348131;28;660261;-67
2021/09/13 08:48:35;;;;;;;36.50;21.73;;;22.10;1.00;;;;;;4372918;28;659660;-67
2021/09/13 08:51:36;;;;;;;32.67;20.40;;;22.00;1.00;;;;;;4351338;28;658756;-68
2021/09/13 08:54:30;;;;;;;31.70;19.60;;;22.00;99.90;;;;;;4376719;28;658481;-68
2021/09/13 08:57:22;;;;;;;31.13;19.70;;;22.40;99.90;;;;;;4353015;28;659581;-68
2021/09/13 09:00:18;;;;;;;34.37;18.27;;;22.00;99.90;;;;;;4371472;28;660657;-68
2021/09/13 09:03:11;;;;;;;29.37;15.87;;;21.90;99.90;;;;;;4371548;28;659802;-68
2021/09/13 09:06:03;;;;;;;27.13;16.73;;;21.80;99.90;;;;;;4348788;28;660667;-67
2021/09/13 09:09:03;;;;;;;26.07;16.37;;;21.70;99.90;;;;;;4443940;28;659921;-67
2021/09/13 09:11:59;;;;;;;28.50;16.97;;;21.90;99.90;;;;;;4444018;28;659694;-67
2021/09/13 09:14:54;;;;;;;28.27;17.70;;;22.00;99.90;;;;;;4425054;28;659789;-68
2021/09/13 09:17:44;;;;;;;26.80;15.83;;;22.30;99.90;;;;;;4431501;28;660106;-68
2021/09/13 09:20:48;;;;;;;30.27;16.70;;;22.50;99.90;;;;;;4447605;28;659782;-68
2021/09/13 09:23:54;;;;;;;27.03;14.50;;;23.00;99.90;;;;;;4443765;27;659975;-67
2021/09/13 09:26:42;;;;;;;20.27;12.03;;;23.60;1.00;;;;;;4431638;28;659949;-68
2021/09/13 09:29:30;;;;;;;29.20;15.23;;;23.80;1.00;;;;;;4467816;28;659378;-68
2021/09/13 09:32:22;;;;;;;20.03;13.10;;;23.70;99.90;;;;;;4447489;28;658543;-69
2021/09/13 09:35:16;;;;;;;25.00;12.20;;;23.70;99.90;;;;;;4443797;28;660708;-67
2021/09/13 09:38:05;;;;;;;24.53;13.27;;;24.10;99.90;;;;;;4419915;28;660841;-68
2021/09/13 09:41:03;;;;;;;28.33;14.80;;;24.10;94.20;;;;;;4446704;28;660195;-68
2021/09/13 09:43:55;;;;;;;26.03;15.43;;;23.70;99.90;;;;;;4443485;28;659934;-67
2021/09/13 09:46:44;;;;;;;23.80;13.73;;;23.20;99.90;;;;;;4445581;28;659788;-67
2021/09/13 09:49:41;;;;;;;22.87;13.40;;;22.80;99.90;;;;;;4452301;28;660518;-68
2021/09/13 09:52:37;;;;;;;18.70;12.67;;;22.80;99.90;;;;;;4447173;28;659963;-68
2021/09/13 09:55:34;;;;;;;22.93;12.33;;;23.00;99.90;;;;;;4443148;28;660414;-68
2021/09/13 09:58:30;;;;;;;19.70;12.87;;;23.50;99.90;;;;;;4437996;28;659465;-68
2021/09/13 10:01:31;;;;;;;22.67;13.27;;;23.40;99.90;;;;;;4446693;28;659571;-68
2021/09/13 10:04:24;;;;;;;17.60;12.03;;;23.30;91.80;;;;;;4419748;28;660678;-68
2021/09/13 10:07:17;;;;;;;16.50;10.73;;;23.20;1.00;;;;;;4397848;28;659784;-67
2021/09/13 10:10:10;;;;;;;19.50;10.70;;;22.90;3.40;;;;;;4372018;28;659676;-68
2021/09/13 10:13:06;;;;;;;24.77;10.90;;;22.80;41.00;;;;;;4349081;28;659507;-68
2021/09/13 10:15:54;;;;;;;20.23;11.10;;;22.70;99.90;;;;;;4347842;28;659944;-67
2021/09/13 10:18:43;;;;;;;22.13;11.13;;;22.30;99.90;;;;;;4382655;28;660202;-68
2021/09/13 10:21:30;;;;;;;22.50;10.93;;;22.10;99.90;;;;;;4393191;28;660247;-67
2021/09/13 10:24:19;;;;;;;16.17;9.87;;;21.80;99.90;;;;;;4374818;28;659583;-68
2021/09/13 10:27:08;;;;;;;21.53;10.43;;;21.60;99.90;;;;;;4393197;28;659351;-68
2021/09/13 10:30:19;;;;;;;21.23;11.17;;;21.50;1.00;;;;;;4393019;28;659657;-67
2021/09/13 10:33:15;;;;;;;18.43;10.17;;;21.40;1.00;;;;;;4393894;28;658771;-69
2021/09/13 10:36:05;;;;;;;18.60;9.70;;;21.30;1.00;;;;;;4374157;28;658628;-68
2021/09/13 10:38:53;;;;;;;19.37;9.70;;;21.30;99.90;;;;;;4374190;28;657486;-67
2021/09/13 10:41:59;;;;;;;16.33;10.37;;;21.30;99.90;;;;;;4394209;28;659239;-67
2021/09/13 10:45:04;;;;;;;14.17;9.97;;;21.20;99.90;;;;;;4369983;28;659963;-67
2021/09/13 10:48:16;;;;;;;20.17;10.40;;;21.10;99.90;;;;;;4361000;28;659986;-68
2021/09/13 10:51:13;;;;;;;14.63;9.80;;;21.10;99.90;;;;;;4373963;28;659849;-67
2021/09/13 10:54:05;;;;;;;19.30;10.40;;;21.20;99.90;;;;;;4371632;28;658651;-67
2021/09/13 10:57:02;;;;;;;19.93;10.70;;;21.20;99.90;;;;;;4373962;28;659572;-67
2021/09/13 11:00:03;;;;;;;17.83;10.67;;;21.40;99.90;;;;;;4369997;28;660527;-67
2021/09/13 11:03:30;;;;;;;14.60;10.57;;;21.50;99.90;;;;;;4369704;28;660141;-67
2021/09/13 11:06:47;;;;;;;19.77;11.17;;;21.60;63.30;;;;;;4351087;28;659488;-67
2021/09/13 11:09:39;;;;;;;9.53;8.43;;;21.80;48.40;;;;;;4441540;28;659980;-67
2021/09/13 11:12:28;;;;;;;14.60;8.80;;;22.40;1.00;;;;;;4448250;28;657234;-68
2021/09/13 11:15:20;;;;;;;14.27;9.20;;;22.30;1.00;;;;;;4467183;28;657341;-67
2021/09/13 11:18:15;;;;;;;16.67;9.87;;;22.50;99.90;;;;;;4421671;28;658685;-67
2021/09/13 11:21:20;;;;;;;17.07;9.47;;;23.00;99.90;;;;;;4424042;28;658493;-68
2021/09/13 11:24:16;;;;;;;15.47;9.87;;;23.80;99.90;;;;;;4420182;28;659481;-68
2021/09/13 11:27:09;;;;;;;12.13;9.00;;;24.00;1.00;;;;;;4447594;28;658882;-68
2021/09/13 11:30:03;;;;;;;11.17;8.50;;;24.80;1.00;;;;;;4425382;28;657623;-68
2021/09/13 11:32:55;;;;;;;13.95;9.15;;;25.30;99.90;;;;;;4443355;28;658616;-67
2021/09/13 11:35:47;;;;;;;16.08;8.73;;;25.10;1.00;;;;;;4423914;28;659417;-67
2021/09/13 11:38:57;;;;;;;12.57;7.07;;;24.60;44.80;;;;;;4441767;28;659128;-68
2021/09/13 11:42:05;;;;;;;10.05;7.45;;;24.90;1.00;;;;;;4443246;28;659487;-68
2021/09/13 11:44:57;;;;;;;10.07;7.35;;;24.60;1.00;;;;;;4421764;28;657746;-68
2021/09/13 11:47:49;;;;;;;8.23;6.03;;;24.60;45.30;;;;;;4444105;28;658889;-68
2021/09/13 11:50:45;;;;;;;7.65;6.32;;;25.10;1.00;;;;;;4425253;28;657834;-69
2021/09/13 11:53:42;;;;;;;8.80;6.50;;;25.60;91.50;;;;;;4422497;28;658107;-68
2021/09/13 11:56:37;;;;;;;8.82;6.22;;;25.90;1.00;;;;;;4443949;28;657718;-68
2021/09/13 11:59:38;;;;;;;6.07;5.47;;;25.80;1.00;;;;;;4445561;28;657054;-68
2021/09/13 12:02:36;;;;;;;8.95;5.82;;;25.90;1.00;;;;;;4447864;28;656430;-68
2021/09/13 12:05:24;;;;;;;7.78;5.43;;;25.70;99.90;;;;;;4425890;28;657780;-67
2021/09/13 12:08:14;;;;;;;6.47;4.95;;;25.20;99.90;;;;;;4440509;28;657359;-68
2021/09/13 12:11:02;;;;;;;8.45;5.20;;;24.70;99.90;;;;;;4450328;28;657508;-68
2021/09/13 12:13:50;;;;;;;7.63;5.45;;;24.40;99.90;;;;;;4470430;28;658417;-67
2021/09/13 12:16:39;;;;;;;6.65;5.95;;;24.10;99.90;;;;;;4450475;28;657645;-68
2021/09/13 12:19:27;;;;;;;9.98;6.15;;;23.80;1.00;;;;;;4453944;28;657637;-68
2021/09/13 12:22:18;;;;;;;9.18;6.40;;;23.60;1.00;;;;;;4470703;28;658119;-67
2021/09/13 12:25:10;;;;;;;12.20;6.25;;;23.60;99.90;;;;;;4364711;28;656948;-67
2021/09/13 12:28:00;;;;;;;7.82;6.57;;;23.40;99.90;;;;;;4423648;28;658314;-68
2021/09/13 12:30:52;;;;;;;9.35;7.32;;;23.30;99.90;;;;;;4450284;28;657791;-67
2021/09/13 12:33:42;;;;;;;8.90;6.90;;;23.30;1.00;;;;;;4446092;28;659013;-67
2021/09/13 12:36:36;;;;;;;10.60;8.30;;;23.40;1.00;;;;;;4446087;28;657796;-67
2021/09/13 12:39:28;;;;;;;12.00;8.30;;;23.20;1.00;;;;;;4449958;28;658169;-67
2021/09/13 12:42:31;;;;;;;13.43;8.27;;;23.30;1.00;;;;;;4446280;28;657765;-67
2021/09/13 12:45:29;;;;;;;8.90;7.50;;;23.40;1.00;;;;;;4422634;28;658348;-67
2021/09/13 12:48:34;;;;;;;12.00;8.57;;;23.60;8.50;;;;;;4362605;28;657532;-68
2021/09/13 12:51:31;;;;;;;10.27;7.77;;;23.90;1.00;;;;;;4359616;28;658082;-68
2021/09/13 12:54:32;;;;;;;12.73;7.65;;;24.60;1.00;;;;;;4339862;28;659163;-67
2021/09/13 12:57:41;;;;;;;12.40;8.18;;;25.30;99.90;;;;;;4445424;28;658355;-68
2021/09/13 13:00:43;;;;;;;11.23;7.55;;;25.30;99.90;;;;;;4448188;28;658490;-68
2021/09/13 13:03:39;;;;;;;13.10;8.55;;;25.40;99.90;;;;;;4444287;28;658433;-68
2021/09/13 13:06:28;;;;;;;11.23;8.68;;;25.80;99.90;;;;;;4436440;28;658797;-68
2021/09/13 13:09:18;;;;;;;10.68;8.20;;;25.90;34.80;;;;;;4388915;27;659015;-67
2021/09/13 13:12:06;;;;;;;15.32;7.70;;;25.50;1.00;;;;;;4371186;28;658989;-67
2021/09/13 13:14:57;;;;;;;12.15;7.88;;;25.00;1.00;;;;;;4376606;28;659018;-68
2021/09/13 13:17:49;;;;;;;9.43;8.25;;;24.70;15.20;;;;;;4372468;28;658799;-67
2021/09/13 13:20:36;;;;;;;10.15;8.20;;;24.30;99.90;;;;;;4372886;28;657283;-68
2021/09/13 13:23:25;;;;;;;11.32;8.02;;;23.90;99.90;;;;;;4369361;28;659147;-67
2021/09/13 13:26:13;;;;;;;11.20;8.75;;;23.60;1.00;;;;;;4375405;28;658245;-67
2021/09/13 13:29:00;;;;;;;12.30;7.97;;;23.10;1.00;;;;;;4395620;28;657963;-67
2021/09/13 13:31:48;;;;;;;12.30;8.27;;;22.80;99.90;;;;;;4375182;28;657439;-67
2021/09/13 13:34:38;;;;;;;14.87;8.57;;;22.70;1.00;;;;;;4392925;28;658910;-67
2021/09/13 13:37:26;;;;;;;11.43;9.00;;;22.60;1.00;;;;;;4372686;28;657549;-67
2021/09/13 13:40:15;;;;;;;13.87;8.67;;;22.60;28.10;;;;;;4376945;28;657939;-67
2021/09/13 13:43:06;;;;;;;12.43;8.80;;;22.50;99.90;;;;;;4375463;28;658859;-67
2021/09/13 13:45:56;;;;;;;14.63;7.90;;;22.30;99.90;;;;;;4374972;28;659834;-67
2021/09/13 13:48:58;;;;;;;12.33;8.97;;;22.00;99.90;;;;;;4375472;28;659995;-67
2021/09/13 13:51:50;;;;;;;13.40;8.50;;;22.00;1.00;;;;;;4371456;28;658404;-67
2021/09/13 13:54:43;;;;;;;11.50;8.43;;;21.90;1.00;;;;;;4349668;28;657986;-67
2021/09/13 13:57:44;;;;;;;12.77;8.43;;;21.70;99.90;;;;;;4372394;28;657919;-67
2021/09/13 14:00:53;;;;;;;14.67;9.13;;;21.70;99.90;;;;;;4352027;28;658649;-68
2021/09/13 14:03:40;;;;;;;13.40;8.50;;;21.60;1.00;;;;;;4370060;28;659276;-67
2021/09/13 14:06:28;;;;;;;14.90;8.93;;;21.60;1.00;;;;;;4375899;28;657396;-67
2021/09/13 14:09:15;;;;;;;11.53;8.93;;;21.60;1.00;;;;;;4379611;28;657676;-67
2021/09/13 14:12:03;;;;;;;12.67;9.60;;;21.60;50.40;;;;;;4359143;28;657504;-67
2021/09/13 14:14:52;;;;;;;13.67;9.87;;;21.70;99.90;;;;;;4378568;28;659313;-67
2021/09/13 14:17:40;;;;;;;12.63;9.43;;;21.70;99.90;;;;;;4355415;28;659876;-67
2021/09/13 14:20:28;;;;;;;9.40;8.40;;;21.90;99.90;;;;;;4358106;28;659181;-67
2021/09/13 14:23:16;;;;;;;15.93;9.77;;;22.20;99.90;;;;;;4378959;28;658571;-67
2021/09/13 14:26:04;;;;;;;13.13;9.27;;;22.50;1.00;;;;;;4358845;28;660159;-67